Time;durP1;ratioP1;P1;durP2;ratioP2;P2;SDS_P1;SDS_P2;PMS_P1;PMS_P2;Temp;Humidity;BMP_temperature;BMP_pressure;BME280_temperature;BME280_humidity;BME280_pressure;Samples;Min_cycle;Max_cycle;Signal;HPM_P1;HPM_P2
2022/06/26 00:04:04;;;;;;;4.30;3.10;;;25.10;87.10;;;;;;5069722;28;20182;-94
2022/06/26 00:06:29;;;;;;;4.87;3.40;;;25.20;86.90;;;;;;5048655;28;20203;-94
2022/06/26 00:08:57;;;;;;;6.67;3.67;;;25.20;86.90;;;;;;5041640;28;20267;-94
2022/06/26 00:11:30;;;;;;;3.67;3.30;;;25.20;87.10;;;;;;5032146;28;20179;-94
2022/06/26 00:13:55;;;;;;;3.37;3.00;;;25.20;86.30;;;;;;5037422;28;20179;-94
2022/06/26 00:16:22;;;;;;;4.47;3.60;;;25.20;87.40;;;;;;5065147;28;20171;-95
2022/06/26 00:22:10;;;;;;;5.80;5.30;;;25.20;87.70;;;;;;5068689;28;20204;-94
2022/06/26 00:24:43;;;;;;;6.13;4.43;;;25.20;88.80;;;;;;5043059;28;20279;-95
2022/06/26 00:27:09;;;;;;;4.93;3.50;;;25.10;88.40;;;;;;5044691;28;20179;-94
2022/06/26 00:29:35;;;;;;;6.03;5.40;;;25.10;88.50;;;;;;5056482;28;20206;-94
2022/06/26 00:32:03;;;;;;;7.03;4.90;;;25.10;87.30;;;;;;5055340;28;20215;-93
2022/06/26 00:34:29;;;;;;;5.07;4.57;;;25.10;87.10;;;;;;5055190;28;20164;-93
2022/06/26 00:36:55;;;;;;;5.27;4.20;;;25.10;88.10;;;;;;5057078;28;20239;-94
2022/06/26 00:39:21;;;;;;;5.27;4.77;;;25.10;88.30;;;;;;5054627;28;20207;-94
2022/06/26 00:41:47;;;;;;;5.23;4.73;;;25.10;87.20;;;;;;5053363;28;20175;-94
2022/06/26 00:44:16;;;;;;;5.37;4.20;;;25.10;87.60;;;;;;5055294;28;20201;-94
2022/06/26 00:46:43;;;;;;;4.87;4.20;;;25.10;87.60;;;;;;5052859;28;20182;-94
2022/06/26 00:49:09;;;;;;;5.00;4.10;;;25.10;86.90;;;;;;5052346;28;20248;-94
2022/06/26 00:51:39;;;;;;;5.70;4.07;;;25.10;87.20;;;;;;5054023;28;20175;-94
2022/06/26 00:54:10;;;;;;;4.17;3.77;;;25.10;87.70;;;;;;5052827;28;20194;-94
2022/06/26 00:56:37;;;;;;;6.20;4.60;;;25.10;87.60;;;;;;5054790;28;20438;-94
2022/06/26 00:59:03;;;;;;;6.47;4.57;;;25.10;88.40;;;;;;5052781;28;20166;-94
2022/06/26 01:01:29;;;;;;;6.10;4.60;;;25.10;88.00;;;;;;5056297;28;20175;-94
2022/06/26 01:03:55;;;;;;;6.97;4.90;;;25.00;87.80;;;;;;5059594;28;20169;-94
2022/06/26 01:06:21;;;;;;;4.80;4.30;;;25.00;87.90;;;;;;5059486;28;20190;-94
2022/06/26 01:08:47;;;;;;;4.97;4.47;;;25.00;88.40;;;;;;5058277;28;20258;-94
2022/06/26 01:11:20;;;;;;;5.63;4.53;;;24.90;88.80;;;;;;5059242;28;20175;-95
2022/06/26 01:13:57;;;;;;;4.87;4.30;;;25.00;88.80;;;;;;5059324;28;20274;-94
2022/06/26 01:16:24;;;;;;;5.13;4.40;;;25.00;88.80;;;;;;5056302;28;20169;-95
2022/06/26 01:18:54;;;;;;;6.87;4.10;;;24.90;89.00;;;;;;5058025;28;20204;-94
2022/06/26 01:21:21;;;;;;;4.57;3.93;;;24.90;89.60;;;;;;5057984;28;20218;-94
2022/06/26 01:24:04;;;;;;;5.57;3.80;;;24.90;89.90;;;;;;5055393;28;20166;-94
2022/06/26 01:26:31;;;;;;;9.40;4.23;;;24.90;90.20;;;;;;5056489;28;20169;-95
2022/06/26 01:28:57;;;;;;;5.50;3.80;;;24.80;90.70;;;;;;5057556;28;20183;-94
2022/06/26 01:31:22;;;;;;;4.87;4.47;;;24.80;90.70;;;;;;5057242;28;20232;-93
2022/06/26 01:33:57;;;;;;;6.00;4.27;;;24.70;91.80;;;;;;5056502;28;20195;-94
2022/06/26 01:36:23;;;;;;;4.93;3.93;;;24.70;91.20;;;;;;5057037;28;20189;-94
2022/06/26 01:38:49;;;;;;;5.47;3.67;;;24.60;91.60;;;;;;5053749;28;20178;-94
2022/06/26 01:41:15;;;;;;;5.67;4.27;;;24.60;91.50;;;;;;5053588;28;20449;-94
2022/06/26 01:43:45;;;;;;;4.70;3.97;;;24.60;92.20;;;;;;5052124;28;20178;-94
2022/06/26 01:46:11;;;;;;;4.50;3.80;;;24.60;91.90;;;;;;5051463;28;20173;-95
2022/06/26 01:48:40;;;;;;;4.60;3.93;;;24.50;92.00;;;;;;5052310;28;20188;-94
2022/06/26 01:51:07;;;;;;;5.57;4.40;;;24.50;92.70;;;;;;5049379;28;20170;-94
2022/06/26 01:53:34;;;;;;;4.33;3.83;;;24.30;94.80;;;;;;5052007;28;20220;-94
2022/06/26 01:55:59;;;;;;;5.13;4.20;;;24.20;93.80;;;;;;5050609;28;20176;-94
2022/06/26 01:58:25;;;;;;;6.17;4.50;;;24.20;93.80;;;;;;5050574;28;20205;-94
2022/06/26 02:00:57;;;;;;;4.77;3.60;;;24.20;93.50;;;;;;5050388;28;20215;-94
2022/06/26 02:03:24;;;;;;;4.33;3.93;;;24.30;93.30;;;;;;5050925;28;20183;-94
2022/06/26 02:05:50;;;;;;;5.07;3.80;;;24.30;93.40;;;;;;5051428;28;20181;-94
2022/06/26 02:08:17;;;;;;;4.17;3.70;;;24.30;93.20;;;;;;5049717;28;20173;-93
2022/06/26 02:13:37;;;;;;;4.87;3.40;;;24.30;93.20;;;;;;5070047;28;20235;-94
2022/06/26 02:16:30;;;;;;;4.70;3.87;;;24.30;93.20;;;;;;5050856;28;20266;-94
2022/06/26 02:18:58;;;;;;;4.20;3.80;;;24.30;93.20;;;;;;5048122;28;20177;-94
2022/06/26 02:21:27;;;;;;;4.93;4.07;;;24.40;93.20;;;;;;5049466;28;20181;-94
2022/06/26 02:23:54;;;;;;;5.73;3.90;;;24.30;93.10;;;;;;5051972;28;20203;-94
2022/06/26 02:26:21;;;;;;;4.40;4.00;;;24.40;93.10;;;;;;5050907;28;20175;-94
2022/06/26 02:28:47;;;;;;;5.60;3.90;;;24.40;93.10;;;;;;5051447;28;20181;-94
2022/06/26 02:31:14;;;;;;;4.30;3.90;;;24.40;93.70;;;;;;5051889;28;20176;-94
2022/06/26 02:33:39;;;;;;;4.80;3.63;;;24.40;93.10;;;;;;5049921;28;20218;-94
2022/06/26 02:36:08;;;;;;;5.93;4.00;;;24.40;93.20;;;;;;5052299;28;20559;-94
2022/06/26 02:38:34;;;;;;;4.17;3.67;;;24.40;93.00;;;;;;5052466;28;20175;-94
2022/06/26 02:41:00;;;;;;;3.70;3.40;;;24.30;93.10;;;;;;5050657;28;20822;-94
2022/06/26 02:43:27;;;;;;;3.73;3.33;;;24.30;93.70;;;;;;5052411;28;20275;-94
2022/06/26 02:45:53;;;;;;;5.10;3.50;;;24.30;93.60;;;;;;5054727;28;20172;-94
2022/06/26 02:48:20;;;;;;;4.10;3.50;;;24.20;93.60;;;;;;5054353;28;20204;-94
2022/06/26 02:50:49;;;;;;;3.60;3.30;;;24.20;93.80;;;;;;5054107;28;20215;-94
2022/06/26 02:53:15;;;;;;;4.33;3.10;;;24.20;93.80;;;;;;5054572;28;20196;-94
2022/06/26 02:55:50;;;;;;;5.30;3.50;;;24.20;93.80;;;;;;5052959;28;20212;-94
2022/06/26 02:58:16;;;;;;;7.20;3.37;;;24.10;93.80;;;;;;5054803;28;20178;-94
2022/06/26 03:00:42;;;;;;;3.97;3.63;;;24.10;93.80;;;;;;5053508;28;20214;-94
2022/06/26 03:03:07;;;;;;;5.13;3.30;;;24.10;93.90;;;;;;5052312;28;20183;-94
2022/06/26 03:05:41;;;;;;;5.83;3.80;;;24.10;93.70;;;;;;5053132;28;20183;-94
2022/06/26 03:08:07;;;;;;;5.20;4.13;;;23.90;96.70;;;;;;5054115;28;20181;-94
2022/06/26 03:10:32;;;;;;;5.63;4.37;;;23.80;95.20;;;;;;5056198;28;20184;-94
2022/06/26 03:12:58;;;;;;;3.00;2.63;;;23.80;95.40;;;;;;5051870;28;20208;-94
2022/06/26 03:15:24;;;;;;;5.23;4.73;;;23.90;95.00;;;;;;5050750;28;20175;-94
2022/06/26 03:17:50;;;;;;;5.50;4.83;;;24.00;94.80;;;;;;5049107;28;20177;-94
2022/06/26 03:20:18;;;;;;;5.37;4.40;;;24.00;94.70;;;;;;5049363;28;20398;-94
2022/06/26 03:22:44;;;;;;;5.03;4.50;;;24.00;94.50;;;;;;5049492;28;20176;-94
2022/06/26 03:25:12;;;;;;;5.60;4.80;;;24.00;94.40;;;;;;5049086;28;20188;-94
2022/06/26 03:27:37;;;;;;;6.87;5.33;;;24.00;94.30;;;;;;5049892;28;20192;-94
2022/06/26 03:30:05;;;;;;;5.20;4.70;;;24.10;94.30;;;;;;5049740;28;20181;-94
2022/06/26 03:32:31;;;;;;;5.60;5.00;;;24.10;94.20;;;;;;5050028;28;20211;-94
2022/06/26 03:34:56;;;;;;;5.37;4.87;;;24.10;94.20;;;;;;5050741;28;20187;-94
2022/06/26 03:37:22;;;;;;;7.63;5.40;;;24.10;94.10;;;;;;5050080;28;20172;-94
2022/06/26 03:39:48;;;;;;;7.00;6.10;;;24.10;94.00;;;;;;5050085;28;20190;-94
2022/06/26 03:42:13;;;;;;;7.20;6.50;;;24.10;94.10;;;;;;5048058;28;20251;-94
2022/06/26 03:44:39;;;;;;;7.70;6.63;;;24.10;94.00;;;;;;5049616;28;20216;-94
2022/06/26 03:47:06;;;;;;;9.47;6.33;;;24.00;94.10;;;;;;5048792;28;20179;-93
2022/06/26 03:49:32;;;;;;;6.93;6.23;;;24.10;94.10;;;;;;5048721;28;20202;-94
2022/06/26 03:51:58;;;;;;;7.13;6.10;;;24.00;94.10;;;;;;5051042;28;20213;-94
2022/06/26 03:54:25;;;;;;;9.40;6.50;;;24.10;94.20;;;;;;5051671;28;20195;-94
2022/06/26 03:57:01;;;;;;;7.30;6.60;;;24.00;94.20;;;;;;5052509;28;20246;-94
2022/06/26 03:59:27;;;;;;;7.67;6.83;;;24.00;94.20;;;;;;5056043;28;20173;-94
2022/06/26 04:01:53;;;;;;;8.43;7.53;;;24.10;94.20;;;;;;5055144;28;20255;-94
2022/06/26 04:04:19;;;;;;;8.20;7.40;;;24.00;94.20;;;;;;5056100;28;20176;-94
2022/06/26 04:06:47;;;;;;;7.60;6.90;;;24.00;94.30;;;;;;5055029;28;20181;-94
2022/06/26 04:09:13;;;;;;;9.17;8.27;;;24.00;94.40;;;;;;5055365;28;20180;-93
2022/06/26 04:11:39;;;;;;;8.80;7.93;;;24.00;94.40;;;;;;5057053;28;20199;-94
2022/06/26 04:14:04;;;;;;;8.97;7.83;;;24.00;94.30;;;;;;5056523;28;20169;-94
2022/06/26 04:16:30;;;;;;;8.37;7.57;;;24.00;94.20;;;;;;5056375;28;20176;-94
2022/06/26 04:18:56;;;;;;;10.57;8.43;;;24.10;94.30;;;;;;5054615;28;20173;-94
2022/06/26 04:21:23;;;;;;;9.47;8.00;;;24.10;94.30;;;;;;5055264;28;20170;-94
2022/06/26 04:23:50;;;;;;;9.23;7.97;;;24.10;94.20;;;;;;5054208;28;20183;-94
2022/06/26 04:26:16;;;;;;;14.23;8.30;;;24.10;94.20;;;;;;5053128;28;20238;-94
2022/06/26 04:28:41;;;;;;;8.93;8.03;;;24.20;94.10;;;;;;5053937;28;20182;-94
2022/06/26 04:31:07;;;;;;;9.73;8.00;;;24.20;94.60;;;;;;5053423;28;20605;-94
2022/06/26 04:33:33;;;;;;;9.47;7.90;;;24.20;94.30;;;;;;5052336;28;20593;-94
2022/06/26 04:35:59;;;;;;;9.13;7.80;;;24.20;94.10;;;;;;5052881;28;20197;-94
2022/06/26 04:38:25;;;;;;;4.67;4.20;;;24.30;94.00;;;;;;5055794;28;20238;-94
2022/06/26 04:40:50;;;;;;;6.83;6.23;;;24.30;94.20;;;;;;5054077;28;20201;-94
2022/06/26 04:43:16;;;;;;;7.27;6.57;;;24.40;94.00;;;;;;5052849;28;20220;-94
2022/06/26 04:45:42;;;;;;;4.70;4.27;;;24.40;93.90;;;;;;5052054;28;20217;-94
2022/06/26 04:48:08;;;;;;;3.83;3.53;;;24.50;93.50;;;;;;5052071;28;20914;-94
2022/06/26 04:50:34;;;;;;;4.47;4.07;;;24.50;93.40;;;;;;5051876;28;20598;-93
2022/06/26 04:53:05;;;;;;;6.57;5.77;;;24.50;93.60;;;;;;5053364;28;20204;-93
2022/06/26 04:55:32;;;;;;;5.63;4.87;;;24.50;93.30;;;;;;5053594;28;20178;-93
2022/06/26 04:57:57;;;;;;;6.83;5.70;;;24.60;93.30;;;;;;5053952;28;20176;-93
2022/06/26 05:00:23;;;;;;;5.90;5.23;;;24.60;93.30;;;;;;5052929;28;20209;-94
2022/06/26 05:02:49;;;;;;;7.27;5.50;;;24.60;93.60;;;;;;5053402;28;20183;-94
2022/06/26 05:05:15;;;;;;;6.77;5.07;;;24.60;93.30;;;;;;5052326;28;20184;-94
2022/06/26 05:07:40;;;;;;;4.57;3.70;;;24.70;93.10;;;;;;5053634;28;20180;-94
2022/06/26 05:10:07;;;;;;;3.63;3.33;;;24.70;93.20;;;;;;5054338;28;20191;-94
2022/06/26 05:12:32;;;;;;;4.07;2.77;;;24.80;92.90;;;;;;5054854;28;20202;-94
2022/06/26 05:14:58;;;;;;;5.23;4.07;;;24.90;92.30;;;;;;5054722;28;20180;-94
2022/06/26 05:17:24;;;;;;;4.40;4.00;;;24.90;93.50;;;;;;5053815;28;20230;-94
2022/06/26 05:19:55;;;;;;;4.87;3.00;;;25.00;93.80;;;;;;5054039;28;20179;-94
2022/06/26 05:22:20;;;;;;;3.50;3.00;;;25.10;92.30;;;;;;5051964;28;20179;-94
2022/06/26 05:24:46;;;;;;;4.63;3.30;;;25.20;91.40;;;;;;5054176;28;20255;-94
2022/06/26 05:27:12;;;;;;;4.00;3.23;;;25.20;91.30;;;;;;5058067;28;20187;-94
2022/06/26 05:29:37;;;;;;;3.80;3.20;;;25.30;92.30;;;;;;5055399;28;20181;-94
2022/06/26 05:32:03;;;;;;;4.57;3.50;;;25.30;92.50;;;;;;5055182;28;20204;-95
2022/06/26 05:34:31;;;;;;;5.30;3.30;;;25.30;91.80;;;;;;5053216;28;20242;-94
2022/06/26 05:36:57;;;;;;;4.80;3.50;;;25.20;91.90;;;;;;5055637;28;20191;-94
2022/06/26 05:39:23;;;;;;;3.27;2.97;;;25.20;91.50;;;;;;5056584;28;20192;-95
2022/06/26 05:41:48;;;;;;;6.33;3.60;;;25.20;91.60;;;;;;5059322;28;20171;-95
2022/06/26 05:44:15;;;;;;;3.43;2.70;;;25.20;92.20;;;;;;5056276;28;20189;-94
2022/06/26 05:46:42;;;;;;;3.33;2.60;;;25.10;91.50;;;;;;5056818;28;20179;-95
2022/06/26 05:49:08;;;;;;;4.47;3.00;;;25.10;91.50;;;;;;5053347;28;20191;-94
2022/06/26 05:51:33;;;;;;;3.07;2.70;;;25.10;91.50;;;;;;5053453;28;20181;-93
2022/06/26 05:53:59;;;;;;;4.30;2.80;;;25.10;91.70;;;;;;5050675;28;20168;-94
2022/06/26 05:56:25;;;;;;;6.87;2.90;;;25.10;91.30;;;;;;5054855;28;20175;-95
2022/06/26 05:58:51;;;;;;;7.53;2.90;;;25.10;91.10;;;;;;5052591;28;20229;-94
2022/06/26 06:01:16;;;;;;;4.20;2.90;;;25.00;91.30;;;;;;5052466;28;20276;-94
2022/06/26 06:03:42;;;;;;;5.53;2.80;;;25.00;91.00;;;;;;5052203;28;20188;-94
2022/06/26 06:06:08;;;;;;;5.87;3.23;;;25.00;91.10;;;;;;5052977;28;20193;-94
2022/06/26 06:08:33;;;;;;;4.40;3.17;;;25.00;91.00;;;;;;5057801;28;20180;-94
2022/06/26 06:11:01;;;;;;;3.63;2.70;;;25.00;91.00;;;;;;5051329;28;20282;-94
2022/06/26 06:13:27;;;;;;;4.13;2.60;;;25.00;90.90;;;;;;5048489;28;20270;-94
2022/06/26 06:15:53;;;;;;;3.90;2.20;;;24.90;91.20;;;;;;5050864;28;20241;-95
2022/06/26 06:18:18;;;;;;;3.40;2.20;;;24.90;91.20;;;;;;5048901;28;20206;-94
2022/06/26 06:20:45;;;;;;;3.20;2.10;;;24.90;91.00;;;;;;5046296;28;20184;-94
2022/06/26 06:23:11;;;;;;;2.27;2.07;;;24.90;90.90;;;;;;5050303;28;20194;-94
2022/06/26 06:25:37;;;;;;;2.30;2.10;;;24.90;90.60;;;;;;5049172;28;20176;-94
2022/06/26 06:28:03;;;;;;;3.07;2.33;;;24.90;90.80;;;;;;5049266;28;20186;-94
2022/06/26 06:30:29;;;;;;;5.17;2.13;;;24.80;90.80;;;;;;5049599;28;20270;-93
2022/06/26 06:32:54;;;;;;;5.40;2.20;;;24.90;90.80;;;;;;5049372;28;20263;-94
2022/06/26 06:35:20;;;;;;;2.20;1.93;;;24.80;90.80;;;;;;5050196;28;20475;-94
2022/06/26 06:37:46;;;;;;;2.53;2.17;;;24.80;90.70;;;;;;5050398;28;20207;-94
2022/06/26 06:40:21;;;;;;;3.60;2.00;;;24.80;90.70;;;;;;5050270;28;20222;-94
2022/06/26 06:42:47;;;;;;;4.30;2.40;;;24.80;90.80;;;;;;5051089;28;20181;-93
2022/06/26 06:45:13;;;;;;;2.77;2.10;;;24.80;90.90;;;;;;5057380;28;20202;-94
2022/06/26 06:49:59;;;;;;;3.03;2.10;;;24.80;90.90;;;;;;5113016;27;20556;-9
2022/06/26 06:52:24;;;;;;;3.73;2.17;;;24.80;91.00;;;;;;5112545;28;20188;-9
2022/06/26 06:54:50;;;;;;;2.57;2.10;;;24.80;91.00;;;;;;5113233;28;20574;-9
2022/06/26 06:57:16;;;;;;;3.23;2.20;;;24.80;91.00;;;;;;5112548;28;20180;-9
2022/06/26 06:59:41;;;;;;;6.50;2.30;;;24.80;90.80;;;;;;5111991;28;20183;-9
2022/06/26 07:02:07;;;;;;;5.63;2.00;;;24.80;90.70;;;;;;5112442;28;20173;-8
2022/06/26 07:04:33;;;;;;;1.83;1.73;;;24.90;90.70;;;;;;5111339;28;20276;-9
2022/06/26 07:06:59;;;;;;;2.70;1.90;;;25.00;90.40;;;;;;5111729;28;20213;-9
2022/06/26 07:09:24;;;;;;;2.73;1.97;;;25.20;90.00;;;;;;5112603;28;20194;-8
2022/06/26 07:11:50;;;;;;;3.80;1.87;;;25.50;87.80;;;;;;5112151;28;20191;-9
2022/06/26 07:14:16;;;;;;;2.33;1.90;;;25.70;86.60;;;;;;5111104;28;20171;-9
2022/06/26 07:16:42;;;;;;;4.27;2.60;;;26.00;83.80;;;;;;5110847;28;20472;-8
2022/06/26 07:19:07;;;;;;;2.00;1.70;;;26.20;82.40;;;;;;5110996;28;20194;-9
2022/06/26 07:21:33;;;;;;;1.80;1.50;;;26.40;79.60;;;;;;5111146;28;20176;-9
2022/06/26 07:23:59;;;;;;;3.10;1.80;;;26.50;77.10;;;;;;5110681;28;20179;-9
2022/06/26 07:26:25;;;;;;;2.13;1.93;;;26.70;75.70;;;;;;5110793;28;20254;-10
2022/06/26 07:28:51;;;;;;;1.97;1.67;;;26.80;74.30;;;;;;5109228;28;20210;-8
2022/06/26 07:31:16;;;;;;;2.08;1.73;;;27.00;72.30;;;;;;5110745;28;20247;-9
2022/06/26 07:36:27;;;;;;;2.15;1.95;;;27.40;69.20;;;;;;5110885;28;20227;-9
2022/06/26 07:38:54;;;;;;;2.22;1.95;;;27.60;67.20;;;;;;5110923;28;20398;-8
2022/06/26 07:41:21;;;;;;;2.30;1.90;;;27.80;65.50;;;;;;5109997;28;20162;-10
2022/06/26 07:43:47;;;;;;;2.10;1.90;;;28.00;64.00;;;;;;5109955;28;20511;-9
2022/06/26 07:46:12;;;;;;;2.22;1.88;;;28.20;62.70;;;;;;5110181;28;20490;-9
2022/06/26 07:48:38;;;;;;;2.38;1.95;;;28.30;61.60;;;;;;5109338;28;20213;-9
2022/06/26 07:51:04;;;;;;;2.08;1.85;;;28.50;60.70;;;;;;5110333;28;20506;-9
2022/06/26 07:53:29;;;;;;;2.05;1.80;;;28.60;59.90;;;;;;5109908;28;20181;-9
2022/06/26 07:55:55;;;;;;;2.42;1.83;;;28.60;59.30;;;;;;5109819;28;20198;-8
2022/06/26 07:58:21;;;;;;;2.30;2.13;;;28.70;59.00;;;;;;5108953;28;20231;-9
2022/06/26 08:00:47;;;;;;;2.60;1.80;;;28.70;59.00;;;;;;5100191;28;20181;-9
2022/06/26 08:03:15;;;;;;;2.42;1.90;;;28.80;58.80;;;;;;5095408;28;20543;-9
2022/06/26 08:05:42;;;;;;;1.95;1.85;;;28.80;58.50;;;;;;5096067;28;20174;-8
2022/06/26 08:08:08;;;;;;;2.58;2.10;;;28.80;58.40;;;;;;5096666;28;20206;-8
2022/06/26 08:10:35;;;;;;;2.42;1.90;;;28.70;58.50;;;;;;5094043;28;20167;-8
2022/06/26 08:13:02;;;;;;;2.40;2.13;;;28.60;58.60;;;;;;5095044;28;20509;-9
2022/06/26 08:15:28;;;;;;;1.90;1.70;;;28.50;58.80;;;;;;5094333;28;20167;-9
2022/06/26 08:17:54;;;;;;;3.42;1.92;;;28.40;59.00;;;;;;5094426;28;20163;-8
2022/06/26 08:20:20;;;;;;;2.63;2.00;;;28.40;59.00;;;;;;5095299;28;20230;-9
2022/06/26 08:22:46;;;;;;;2.55;2.00;;;28.50;58.90;;;;;;5094103;28;20244;-10
2022/06/26 08:25:12;;;;;;;2.85;2.10;;;28.40;59.00;;;;;;5096013;28;20460;-9
2022/06/26 08:27:37;;;;;;;2.20;1.80;;;28.40;59.10;;;;;;5095385;28;20167;-9
2022/06/26 08:30:04;;;;;;;2.58;1.80;;;28.40;59.20;;;;;;5095125;28;20193;-8
2022/06/26 08:32:30;;;;;;;3.40;2.00;;;28.30;59.20;;;;;;5095671;28;20575;-9
2022/06/26 08:34:55;;;;;;;1.92;1.75;;;28.20;59.30;;;;;;5093094;28;20244;-9
2022/06/26 08:37:21;;;;;;;3.35;2.13;;;28.30;59.40;;;;;;5093767;28;20504;-10
2022/06/26 08:39:46;;;;;;;2.85;2.20;;;28.20;59.50;;;;;;5094199;28;20622;-9
2022/06/26 08:42:13;;;;;;;1.97;1.73;;;28.10;59.50;;;;;;5094635;28;20468;-8
2022/06/26 08:44:43;;;;;;;2.73;1.90;;;28.10;59.60;;;;;;5095175;28;20171;-9
2022/06/26 08:47:13;;;;;;;2.10;1.90;;;28.10;59.70;;;;;;5095382;28;20544;-9
2022/06/26 08:49:40;;;;;;;2.23;1.90;;;28.00;59.70;;;;;;5093504;28;20260;-9
2022/06/26 08:52:10;;;;;;;2.80;1.93;;;28.00;59.90;;;;;;5077822;28;20171;-9
2022/06/26 08:54:37;;;;;;;2.07;1.83;;;27.90;60.00;;;;;;5093532;28;20232;-9
2022/06/26 08:57:04;;;;;;;2.20;1.83;;;27.80;60.00;;;;;;5093233;28;20236;-9
2022/06/26 08:59:31;;;;;;;2.93;1.90;;;27.80;59.60;;;;;;5094479;28;20265;-9
2022/06/26 09:01:57;;;;;;;2.90;1.93;;;27.80;60.30;;;;;;5092751;28;20525;-8
2022/06/26 09:04:23;;;;;;;3.20;2.00;;;27.70;60.20;;;;;;5093582;28;20352;-9
2022/06/26 09:06:49;;;;;;;2.00;1.80;;;27.70;60.30;;;;;;5093756;28;20178;-8
2022/06/26 09:09:25;;;;;;;2.30;1.70;;;27.70;60.20;;;;;;5093535;28;20246;-8
2022/06/26 09:11:53;;;;;;;2.00;1.50;;;27.60;60.00;;;;;;5094468;28;20174;-8
2022/06/26 09:14:21;;;;;;;2.33;1.37;;;27.60;59.10;;;;;;5094157;28;20262;-8
2022/06/26 09:16:48;;;;;;;2.83;1.43;;;27.60;58.70;;;;;;5093758;28;20198;-9
2022/06/26 09:19:20;;;;;;;1.87;1.67;;;27.50;58.90;;;;;;5092043;28;20225;-9
2022/06/26 09:21:47;;;;;;;3.17;1.80;;;27.50;60.20;;;;;;5094828;28;20201;-9
2022/06/26 09:24:16;;;;;;;2.80;1.50;;;27.50;60.10;;;;;;5094211;28;20167;-10
2022/06/26 09:26:43;;;;;;;2.10;1.87;;;27.40;58.70;;;;;;5094372;28;20573;-9
2022/06/26 09:29:18;;;;;;;1.60;1.40;;;27.40;60.30;;;;;;5094084;28;20430;-9
2022/06/26 09:31:44;;;;;;;2.17;1.63;;;27.30;59.30;;;;;;5091597;28;20178;-8
2022/06/26 09:34:25;;;;;;;2.70;1.53;;;27.30;59.20;;;;;;5092324;28;20210;-10
2022/06/26 09:37:03;;;;;;;2.73;1.43;;;27.20;59.40;;;;;;5096084;28;20598;-9
2022/06/26 09:39:31;;;;;;;2.47;1.47;;;27.20;58.70;;;;;;5074065;28;20183;-9
2022/06/26 09:41:57;;;;;;;3.73;1.40;;;27.10;59.60;;;;;;5078328;28;20185;-9
2022/06/26 09:44:23;;;;;;;2.27;1.30;;;27.10;59.80;;;;;;5097185;28;20252;-10
2022/06/26 09:46:49;;;;;;;1.80;1.40;;;27.10;58.60;;;;;;5096583;28;20178;-10
2022/06/26 09:49:17;;;;;;;2.53;1.57;;;27.10;58.80;;;;;;5094037;28;20211;-9
2022/06/26 09:51:46;;;;;;;4.00;1.63;;;27.00;59.40;;;;;;5092935;28;20167;-10
2022/06/26 09:54:13;;;;;;;2.00;1.50;;;27.00;59.40;;;;;;5090744;28;20199;-10
2022/06/26 09:56:40;;;;;;;2.10;1.40;;;26.90;60.10;;;;;;5092574;28;20525;-9
2022/06/26 09:59:07;;;;;;;3.50;1.50;;;26.80;59.60;;;;;;5091128;28;20286;-11
2022/06/26 10:07:05;;;;;;;2.37;1.47;;;26.20;61.70;;;;;;5096205;28;20174;-10
2022/06/26 10:09:34;;;;;;;3.77;1.40;;;25.90;63.50;;;;;;5096515;28;20271;-10
2022/06/26 10:12:01;;;;;;;2.30;1.50;;;25.80;65.30;;;;;;5095723;28;20175;-9
2022/06/26 10:14:41;;;;;;;4.60;1.50;;;25.80;66.40;;;;;;5093174;28;20278;-9
2022/06/26 10:17:37;;;;;;;4.30;1.93;;;25.80;66.30;;;;;;5089007;28;20177;-11
2022/06/26 10:20:09;;;;;;;5.43;1.87;;;25.80;67.90;;;;;;5096314;28;20179;-10
2022/06/26 10:22:53;;;;;;;2.37;1.40;;;25.90;67.90;;;;;;5097076;28;20179;-9
2022/06/26 10:25:27;;;;;;;2.73;1.30;;;25.80;66.20;;;;;;5096748;28;20231;-8
2022/06/26 10:27:54;;;;;;;2.37;1.47;;;25.80;67.80;;;;;;5088258;28;20190;-9
2022/06/26 10:30:27;;;;;;;5.17;1.50;;;25.80;68.80;;;;;;5082849;28;20218;-11
2022/06/26 10:33:25;;;;;;;2.43;1.53;;;25.90;68.70;;;;;;5076186;28;20221;-10
2022/06/26 10:35:51;;;;;;;3.53;1.83;;;25.90;68.20;;;;;;5054017;28;20183;-10
2022/06/26 10:38:29;;;;;;;3.73;1.60;;;25.90;66.00;;;;;;5076942;28;20248;-9
2022/06/26 10:44:12;;;;;;;2.23;1.53;;;25.60;67.60;;;;;;5076998;28;20583;-8
2022/06/26 10:46:49;;;;;;;3.30;1.93;;;25.60;70.30;;;;;;5076969;28;20171;-10
2022/06/26 10:49:15;;;;;;;3.13;1.57;;;25.60;67.80;;;;;;5076535;28;20207;-10
2022/06/26 10:51:43;;;;;;;2.30;1.20;;;25.60;70.50;;;;;;5075775;28;20241;-9
2022/06/26 10:54:21;;;;;;;2.93;1.63;;;25.80;70.20;;;;;;5072139;28;20638;-10
2022/06/26 10:56:54;;;;;;;2.80;1.53;;;25.80;69.20;;;;;;5072934;28;20266;-9
2022/06/26 10:59:22;;;;;;;2.63;1.50;;;25.80;66.50;;;;;;5072567;28;20168;-9
2022/06/26 11:01:48;;;;;;;2.10;1.30;;;25.80;70.50;;;;;;5081539;28;20167;-11
2022/06/26 11:04:14;;;;;;;2.13;1.17;;;25.70;69.60;;;;;;5095417;28;20189;-11
2022/06/26 11:06:40;;;;;;;2.40;1.50;;;25.90;69.30;;;;;;5096309;28;20299;-9
2022/06/26 11:09:08;;;;;;;2.57;1.50;;;26.00;69.20;;;;;;5096377;28;20202;-9
2022/06/26 11:11:34;;;;;;;2.50;1.57;;;26.00;66.70;;;;;;5096051;28;20174;-8
2022/06/26 11:14:07;;;;;;;1.90;1.50;;;26.10;66.70;;;;;;5096766;28;20175;-9
2022/06/26 11:16:42;;;;;;;1.10;1.00;;;26.00;68.50;;;;;;5096720;28;20179;-10
2022/06/26 11:19:21;;;;;;;3.03;1.30;;;26.10;67.60;;;;;;5093877;28;20539;-11
2022/06/26 11:21:47;;;;;;;4.13;1.90;;;26.20;67.20;;;;;;5095568;28;20307;-10
2022/06/26 11:24:13;;;;;;;3.47;1.20;;;26.30;66.40;;;;;;5095776;28;20206;-10
2022/06/26 11:26:39;;;;;;;2.10;1.60;;;26.30;66.30;;;;;;5096626;28;20179;-10
2022/06/26 11:29:08;;;;;;;2.63;1.33;;;26.40;66.30;;;;;;5096639;28;20203;-9
2022/06/26 11:31:35;;;;;;;1.83;1.27;;;26.50;65.90;;;;;;5091141;28;20572;-9
2022/06/26 11:34:11;;;;;;;1.20;1.10;;;26.50;65.10;;;;;;5092720;28;20163;-9
2022/06/26 11:36:51;;;;;;;2.90;1.20;;;26.60;65.10;;;;;;5096154;28;20175;-9
2022/06/26 11:39:17;;;;;;;2.87;1.60;;;26.70;64.80;;;;;;5096240;28;20188;-10
2022/06/26 11:41:45;;;;;;;2.67;1.40;;;26.70;63.30;;;;;;5100398;28;20167;-9
2022/06/26 11:44:12;;;;;;;1.47;1.20;;;26.70;63.20;;;;;;5100379;28;20438;-10
2022/06/26 11:46:38;;;;;;;1.53;1.30;;;26.70;63.90;;;;;;5094902;28;20190;-9
2022/06/26 11:49:04;;;;;;;2.80;1.50;;;26.70;63.80;;;;;;5092174;28;20210;-8
2022/06/26 11:51:30;;;;;;;2.60;1.77;;;26.80;63.80;;;;;;5094688;28;20175;-9
2022/06/26 11:53:56;;;;;;;3.70;1.60;;;26.80;60.70;;;;;;5093916;28;20171;-10
2022/06/26 11:56:27;;;;;;;2.23;1.67;;;26.80;63.00;;;;;;5094553;28;20403;-10
2022/06/26 11:58:55;;;;;;;2.03;1.57;;;26.70;61.90;;;;;;5095252;28;20174;-9
2022/06/26 12:01:29;;;;;;;1.50;1.30;;;26.80;62.20;;;;;;5094547;28;20186;-10
2022/06/26 12:03:56;;;;;;;1.60;1.40;;;26.80;62.80;;;;;;5094191;28;20185;-9
2022/06/26 12:06:52;;;;;;;1.93;1.40;;;26.90;62.80;;;;;;5095016;28;20270;-8
2022/06/26 12:09:26;;;;;;;2.20;1.30;;;26.90;63.00;;;;;;5085937;28;20222;-10
2022/06/26 12:11:54;;;;;;;3.07;1.70;;;27.00;63.00;;;;;;5092395;28;20213;-11
2022/06/26 12:14:22;;;;;;;2.17;1.50;;;27.00;60.70;;;;;;5094325;28;20174;-11
2022/06/26 12:17:04;;;;;;;2.07;1.43;;;26.90;61.00;;;;;;5094942;28;20417;-10
2022/06/26 12:19:38;;;;;;;4.67;1.53;;;26.90;62.60;;;;;;5093786;28;20206;-9
2022/06/26 12:22:04;;;;;;;6.60;1.70;;;26.90;62.80;;;;;;5093386;28;20174;-9
2022/06/26 12:24:30;;;;;;;1.93;1.23;;;27.00;62.60;;;;;;5093780;28;20268;-10
2022/06/26 12:26:57;;;;;;;3.50;1.60;;;27.00;63.40;;;;;;5094674;28;20179;-9
2022/06/26 12:29:25;;;;;;;3.47;1.60;;;27.00;61.40;;;;;;5093518;28;20265;-9
2022/06/26 12:31:53;;;;;;;3.60;1.50;;;27.00;61.50;;;;;;5095223;28;20169;-9
2022/06/26 12:34:19;;;;;;;3.73;1.70;;;27.00;62.00;;;;;;5093953;28;20533;-9
2022/06/26 12:36:45;;;;;;;2.43;1.30;;;27.00;61.10;;;;;;5094707;28;20468;-9
2022/06/26 12:39:11;;;;;;;2.60;1.40;;;27.00;61.60;;;;;;5093128;28;20175;-9
2022/06/26 12:41:40;;;;;;;2.80;1.60;;;27.00;62.00;;;;;;5094064;28;20253;-9
2022/06/26 12:44:08;;;;;;;3.53;1.50;;;27.00;62.30;;;;;;5092913;28;20175;-9
2022/06/26 12:46:33;;;;;;;5.47;1.70;;;27.00;62.90;;;;;;5094498;28;20220;-9
2022/06/26 12:49:00;;;;;;;2.33;1.40;;;27.00;62.80;;;;;;5093643;28;20206;-9
2022/06/26 12:51:27;;;;;;;2.60;1.60;;;27.00;62.20;;;;;;5091762;28;20562;-9
2022/06/26 12:53:53;;;;;;;3.43;1.50;;;27.00;61.60;;;;;;5093371;28;20454;-9
2022/06/26 12:56:19;;;;;;;3.93;1.50;;;27.00;61.90;;;;;;5092151;28;20225;-9
2022/06/26 12:58:45;;;;;;;3.33;1.43;;;27.00;63.30;;;;;;5093097;28;20666;-9
2022/06/26 13:01:10;;;;;;;4.37;1.60;;;27.00;62.50;;;;;;5093083;28;20569;-10
2022/06/26 13:03:37;;;;;;;2.90;1.30;;;27.00;63.10;;;;;;5092591;28;20436;-9
2022/06/26 13:06:03;;;;;;;2.93;1.70;;;27.00;62.80;;;;;;5092801;28;20175;-9
2022/06/26 13:08:30;;;;;;;3.50;1.60;;;27.10;63.60;;;;;;5093201;28;20205;-10
2022/06/26 13:13:41;;;;;;;2.93;1.60;;;27.00;63.60;;;;;;5093178;28;20178;-11
2022/06/26 13:16:10;;;;;;;2.23;1.50;;;27.00;64.30;;;;;;5093529;28;20171;-9
2022/06/26 13:18:35;;;;;;;3.63;1.77;;;26.90;65.70;;;;;;5093333;28;20167;-10